createdAt,value
2023-04-18T04:00:38.075Z,95.54
2023-04-18T04:04:53.349Z,96.11
2023-04-18T04:09:05.052Z,96.56
2023-04-18T04:13:16.584Z,96.09
2023-04-18T04:17:28.358Z,96.09
2023-04-18T04:21:39.969Z,96.26
2023-04-18T04:25:55.897Z,95.55
2023-04-18T04:30:22.674Z,95.55
2023-04-18T04:34:35.632Z,95.70
2023-04-18T04:38:49.818Z,96.08
2023-04-18T04:43:03.230Z,95.38
2023-04-18T04:47:20.874Z,94.83
2023-04-18T04:51:33.193Z,94.62
2023-04-18T04:55:45.587Z,94.00
2023-04-18T04:59:57.278Z,93.67
2023-04-18T05:04:09.258Z,92.66
2023-04-18T05:08:21.538Z,92.55
2023-04-18T05:12:33.392Z,93.41
2023-04-18T05:16:45.065Z,93.24
2023-04-18T05:20:56.822Z,92.89
2023-04-18T05:25:08.605Z,93.44
2023-04-18T05:29:20.321Z,93.16
2023-04-18T05:33:32.082Z,93.58
2023-04-18T05:37:43.557Z,94.41
2023-04-18T05:41:55.043Z,92.63
2023-04-18T05:46:06.963Z,90.96
2023-04-18T05:50:18.520Z,89.21
2023-04-18T05:54:30.001Z,89.12
2023-04-18T05:58:43.867Z,88.25
2023-04-18T06:02:55.502Z,88.65
2023-04-18T06:07:07.854Z,88.27
2023-04-18T06:11:21.102Z,89.64
2023-04-18T06:15:32.698Z,88.79
2023-04-18T06:19:44.198Z,88.71
2023-04-18T06:23:55.742Z,89.37
2023-04-18T06:28:07.308Z,88.84
2023-04-18T06:32:18.900Z,88.13
2023-04-18T06:36:31.424Z,87.96
2023-04-18T06:40:42.954Z,87.90
2023-04-18T06:44:54.462Z,87.03
2023-04-18T06:49:05.995Z,86.87
2023-04-18T06:53:17.528Z,86.47
2023-04-18T06:57:29.036Z,86.21
2023-04-18T07:01:42.035Z,85.33
2023-04-18T07:05:55.476Z,85.50
2023-04-18T07:10:09.446Z,85.11
2023-04-18T07:14:24.666Z,85.50
2023-04-18T07:18:38.330Z,84.83
2023-04-18T07:22:50.301Z,84.01
2023-04-18T07:27:03.228Z,81.92
2023-04-18T07:31:16.397Z,81.60
2023-04-18T07:35:28.079Z,81.22
2023-04-18T07:39:39.583Z,81.82
2023-04-18T07:43:51.121Z,81.70
2023-04-18T07:48:02.850Z,80.63
2023-04-18T07:52:14.898Z,80.05
2023-04-18T07:56:27.087Z,79.18
2023-04-18T08:00:39.202Z,77.98
2023-04-18T08:04:51.945Z,77.99
2023-04-18T08:09:05.643Z,78.53
2023-04-18T08:13:18.004Z,78.81
2023-04-18T08:17:30.105Z,79.50
2023-04-18T08:21:45.301Z,78.72
2023-04-18T08:25:59.794Z,76.78
2023-04-18T08:30:12.038Z,78.85
2023-04-18T08:34:23.946Z,79.75
2023-04-18T08:38:36.203Z,80.18
2023-04-18T08:42:48.936Z,81.09
2023-04-18T08:47:01.819Z,81.51
2023-04-18T08:51:13.695Z,81.24
2023-04-18T08:55:25.562Z,80.46
2023-04-18T08:59:37.319Z,80.64
2023-04-18T09:03:49.579Z,80.90
2023-04-18T09:08:21.787Z,82.43
2023-04-18T09:12:34.497Z,82.31
2023-04-18T09:16:50.644Z,82.91
2023-04-18T09:21:20.132Z,83.16
2023-04-18T09:25:44.456Z,83.59
2023-04-18T09:29:58.044Z,84.25
2023-04-18T09:34:24.993Z,84.47
2023-04-18T09:38:41.290Z,84.38
2023-04-18T09:42:54.471Z,84.38
2023-04-18T09:47:07.751Z,83.74
2023-04-18T09:51:19.921Z,83.57
2023-04-18T09:55:32.375Z,84.63
2023-04-18T09:59:54.907Z,83.75
2023-04-18T10:04:07.865Z,83.85
2023-04-18T10:08:19.969Z,84.27
2023-04-18T10:12:31.667Z,84.39
2023-04-18T10:16:45.511Z,83.33
2023-04-18T10:21:04.225Z,83.54
2023-04-18T10:25:34.153Z,82.77
2023-04-18T10:29:52.958Z,83.16
2023-04-18T10:34:06.836Z,82.44
2023-04-18T10:38:23.555Z,82.74
2023-04-18T10:42:47.232Z,83.37
2023-04-18T10:46:58.749Z,82.24
2023-04-18T10:51:18.859Z,82.10
2023-04-18T10:55:31.232Z,81.20
2023-04-18T10:59:44.817Z,82.04
2023-04-18T11:03:57.348Z,79.70
2023-04-18T11:08:29.153Z,80.08
2023-04-18T11:12:41.142Z,79.14
2023-04-18T11:16:53.247Z,80.81
2023-04-18T11:21:05.564Z,81.25
2023-04-18T11:25:19.005Z,81.66
2023-04-18T11:29:30.955Z,82.73
2023-04-18T11:33:42.485Z,82.50
2023-04-18T11:37:54.372Z,83.17
2023-04-18T11:42:05.927Z,82.53
2023-04-18T11:46:17.914Z,82.92
2023-04-18T11:50:36.112Z,82.47
2023-04-18T11:54:47.633Z,83.09
2023-04-18T11:58:59.171Z,83.50
2023-04-18T12:03:18.785Z,82.67
2023-04-18T12:07:33.935Z,82.37
2023-04-18T12:12:00.793Z,82.78
2023-04-18T12:16:12.376Z,82.27
2023-04-18T12:20:25.864Z,82.38
2023-04-18T12:24:37.919Z,81.63
2023-04-18T12:28:51.229Z,81.39
2023-04-18T12:33:04.400Z,79.48
2023-04-18T12:37:15.945Z,79.40
2023-04-18T12:41:27.461Z,77.73
2023-04-18T12:45:38.992Z,78.42
2023-04-18T12:49:50.491Z,77.13
2023-04-18T12:54:02.006Z,76.53
2023-04-18T12:58:18.360Z,77.11
2023-04-18T13:02:30.263Z,76.88
2023-04-18T13:06:41.982Z,77.08
2023-04-18T13:10:53.477Z,76.22
2023-04-18T13:15:06.753Z,76.00
2023-04-18T13:19:18.316Z,76.38
2023-04-18T13:23:29.835Z,76.17
2023-04-18T13:27:42.072Z,74.88
2023-04-18T13:31:53.810Z,73.25
2023-04-18T13:36:05.700Z,71.60
2023-04-18T13:40:17.224Z,72.55
2023-04-18T13:44:30.435Z,72.39
2023-04-18T13:48:41.949Z,74.14
2023-04-18T13:52:54.458Z,74.78
2023-04-18T13:57:11.622Z,74.88
2023-04-18T14:01:23.335Z,74.60
2023-04-18T14:05:35.807Z,75.46
2023-04-18T14:09:48.151Z,75.86
2023-04-18T14:13:59.695Z,74.61
2023-04-18T14:18:11.215Z,74.17
2023-04-18T14:22:22.823Z,72.72
2023-04-18T14:26:34.325Z,72.74
2023-04-18T14:30:45.962Z,72.80
2023-04-18T14:35:05.603Z,73.43
2023-04-18T14:39:17.162Z,73.37
2023-04-18T14:43:28.685Z,74.68
2023-04-18T14:47:40.359Z,74.02
2023-04-18T14:51:51.910Z,74.10
2023-04-18T14:56:03.649Z,73.04
2023-04-18T15:00:15.626Z,71.47
2023-04-18T15:04:27.410Z,71.35
2023-04-18T15:08:39.076Z,69.44
2023-04-18T15:12:51.153Z,70.05
2023-04-18T15:17:05.516Z,68.81
2023-04-18T15:21:17.041Z,67.70
2023-04-18T15:25:30.344Z,67.53
2023-04-18T15:29:41.900Z,67.62
2023-04-18T15:33:54.389Z,67.77
2023-04-18T15:38:06.585Z,67.00
2023-04-18T15:42:18.159Z,67.29
2023-04-18T15:46:30.023Z,65.97
2023-04-18T15:50:42.349Z,65.99
2023-04-18T15:54:53.867Z,65.92
2023-04-18T15:59:06.084Z,65.70
2023-04-18T16:03:17.700Z,65.38
2023-04-18T16:07:29.274Z,66.00
2023-04-18T16:11:40.839Z,66.46
2023-04-18T16:15:52.345Z,66.30
2023-04-18T16:20:04.532Z,65.83
2023-04-18T16:24:16.623Z,66.46
2023-04-18T16:28:30.697Z,66.35
2023-04-18T16:32:42.217Z,66.57
2023-04-18T16:36:55.602Z,66.19
2023-04-18T16:41:07.222Z,67.14
2023-04-18T16:45:18.710Z,66.99
2023-04-18T16:49:30.336Z,67.46
2023-04-18T16:53:41.815Z,67.04
2023-04-18T16:57:53.295Z,67.69
2023-04-18T17:02:05.048Z,68.13
2023-04-18T17:06:19.279Z,67.46
2023-04-18T17:10:31.146Z,67.84
2023-04-18T17:14:42.632Z,67.53
2023-04-18T17:18:54.119Z,67.97
2023-04-18T17:23:05.640Z,67.21
2023-04-18T17:27:17.134Z,67.61
2023-04-18T17:31:29.355Z,67.62
2023-04-18T17:35:41.595Z,67.96
2023-04-18T17:39:54.557Z,68.60
2023-04-18T17:44:10.278Z,68.74
2023-04-18T17:48:21.791Z,68.52
2023-04-18T17:52:33.321Z,68.98
2023-04-18T17:56:45.510Z,68.89
2023-04-18T18:00:57.145Z,69.48
2023-04-18T18:05:14.746Z,69.68
2023-04-18T18:09:26.716Z,69.77
2023-04-18T18:13:41.047Z,69.59
2023-04-18T18:17:52.882Z,69.65
2023-04-18T18:22:04.402Z,69.81
2023-04-18T18:26:16.015Z,70.04
2023-04-18T18:30:27.679Z,70.55
2023-04-18T18:34:39.300Z,70.36
2023-04-18T18:38:51.082Z,70.29
2023-04-18T18:43:04.978Z,70.22
2023-04-18T18:47:19.779Z,70.47
2023-04-18T18:51:31.418Z,70.91
2023-04-18T18:55:43.001Z,70.98
2023-04-18T18:59:55.848Z,71.34
2023-04-18T19:04:08.100Z,71.58
2023-04-18T19:08:20.204Z,71.99
2023-04-18T19:12:31.827Z,71.65
2023-04-18T19:16:43.394Z,72.55
2023-04-18T19:20:55.045Z,72.75
2023-04-18T19:25:07.415Z,73.42
2023-04-18T19:29:19.086Z,73.86
2023-04-18T19:33:30.698Z,74.34
2023-04-18T19:37:43.000Z,74.48
2023-04-18T19:41:54.628Z,74.68
2023-04-18T19:46:06.194Z,74.59
2023-04-18T19:50:17.857Z,74.75
2023-04-18T19:54:33.159Z,75.06
2023-04-18T19:58:45.030Z,75.66
2023-04-18T20:02:58.629Z,75.47
2023-04-18T20:07:10.380Z,75.90
2023-04-18T20:11:22.220Z,76.35
2023-04-18T20:15:33.873Z,76.62
2023-04-18T20:19:47.085Z,77.04
2023-04-18T20:23:59.255Z,77.29
2023-04-18T20:28:10.957Z,78.03
2023-04-18T20:32:22.541Z,78.75
2023-04-18T20:36:34.365Z,79.61
2023-04-18T20:40:45.926Z,79.90
2023-04-18T20:44:58.774Z,80.69
2023-04-18T20:49:10.650Z,81.19
2023-04-18T20:53:25.076Z,81.63
2023-04-18T20:57:36.828Z,82.27
2023-04-18T21:01:48.489Z,82.84
2023-04-18T21:06:00.228Z,82.88
2023-04-18T21:10:11.782Z,83.68
2023-04-18T21:14:23.659Z,84.16
2023-04-18T21:18:35.292Z,84.56
2023-04-18T21:22:46.951Z,84.73
2023-04-18T21:26:58.710Z,84.98
